sensor_id;sensor_type;location;lat;lon;timestamp;temperature;humidity
24456;DHT22;12628;50.860;5.714;2022-12-07T00:01:05;4.70;99.90
24456;DHT22;12628;50.860;5.714;2022-12-07T00:03:32;4.70;99.90
24456;DHT22;12628;50.860;5.714;2022-12-07T00:06:00;4.70;99.90
24456;DHT22;12628;50.860;5.714;2022-12-07T00:08:27;4.70;99.90
24456;DHT22;12628;50.860;5.714;2022-12-07T00:11:01;4.80;99.90
24456;DHT22;12628;50.860;5.714;2022-12-07T00:13:29;4.80;99.90
24456;DHT22;12628;50.860;5.714;2022-12-07T00:15:59;4.80;99.90
24456;DHT22;12628;50.860;5.714;2022-12-07T00:18:27;4.80;99.90
24456;DHT22;12628;50.860;5.714;2022-12-07T00:20:59;4.80;99.90
24456;DHT22;12628;50.860;5.714;2022-12-07T00:23:27;4.70;99.90
24456;DHT22;12628;50.860;5.714;2022-12-07T00:25:55;4.80;99.90
24456;DHT22;12628;50.860;5.714;2022-12-07T00:28:23;4.70;99.90
24456;DHT22;12628;50.860;5.714;2022-12-07T00:30:50;4.70;99.90
24456;DHT22;12628;50.860;5.714;2022-12-07T00:33:17;4.70;99.90
24456;DHT22;12628;50.860;5.714;2022-12-07T00:35:44;4.70;99.90
24456;DHT22;12628;50.860;5.714;2022-12-07T00:38:12;4.60;99.90
24456;DHT22;12628;50.860;5.714;2022-12-07T00:40:39;4.60;99.90
24456;DHT22;12628;50.860;5.714;2022-12-07T00:43:07;4.50;99.90
24456;DHT22;12628;50.860;5.714;2022-12-07T00:45:34;4.50;99.90
24456;DHT22;12628;50.860;5.714;2022-12-07T00:48:02;4.50;99.90
24456;DHT22;12628;50.860;5.714;2022-12-07T00:50:29;4.40;99.90
24456;DHT22;12628;50.860;5.714;2022-12-07T00:52:56;4.40;99.90
24456;DHT22;12628;50.860;5.714;2022-12-07T00:55:24;4.40;99.90
24456;DHT22;12628;50.860;5.714;2022-12-07T00:57:51;4.40;99.90
24456;DHT22;12628;50.860;5.714;2022-12-07T01:00:20;4.40;99.90
24456;DHT22;12628;50.860;5.714;2022-12-07T01:02:47;4.50;99.90
24456;DHT22;12628;50.860;5.714;2022-12-07T01:05:14;4.50;99.90
24456;DHT22;12628;50.860;5.714;2022-12-07T01:07:41;4.50;99.90
24456;DHT22;12628;50.860;5.714;2022-12-07T01:10:09;4.50;99.90
24456;DHT22;12628;50.860;5.714;2022-12-07T01:12:36;4.50;99.90
24456;DHT22;12628;50.860;5.714;2022-12-07T01:15:05;4.50;99.90
24456;DHT22;12628;50.860;5.714;2022-12-07T01:17:34;4.50;99.90
24456;DHT22;12628;50.860;5.714;2022-12-07T01:20:02;4.50;99.90
24456;DHT22;12628;50.860;5.714;2022-12-07T01:22:29;4.50;99.90
24456;DHT22;12628;50.860;5.714;2022-12-07T01:24:57;4.50;99.90
24456;DHT22;12628;50.860;5.714;2022-12-07T01:27:24;4.60;99.90
24456;DHT22;12628;50.860;5.714;2022-12-07T01:29:51;4.60;99.90
24456;DHT22;12628;50.860;5.714;2022-12-07T01:32:18;4.60;99.90
24456;DHT22;12628;50.860;5.714;2022-12-07T01:34:49;4.70;99.90
24456;DHT22;12628;50.860;5.714;2022-12-07T01:37:16;4.70;99.90
24456;DHT22;12628;50.860;5.714;2022-12-07T01:39:43;4.70;99.90
24456;DHT22;12628;50.860;5.714;2022-12-07T01:42:11;4.70;99.90
24456;DHT22;12628;50.860;5.714;2022-12-07T01:47:40;4.70;99.90
24456;DHT22;12628;50.860;5.714;2022-12-07T01:50:09;4.70;99.90
24456;DHT22;12628;50.860;5.714;2022-12-07T01:52:37;4.60;99.90
24456;DHT22;12628;50.860;5.714;2022-12-07T01:55:08;4.60;99.90
24456;DHT22;12628;50.860;5.714;2022-12-07T01:57:39;4.60;99.90
24456;DHT22;12628;50.860;5.714;2022-12-07T02:00:08;4.60;99.90
24456;DHT22;12628;50.860;5.714;2022-12-07T02:02:39;4.60;99.90
24456;DHT22;12628;50.860;5.714;2022-12-07T02:05:09;4.60;99.90
24456;DHT22;12628;50.860;5.714;2022-12-07T02:07:38;4.60;99.90
24456;DHT22;12628;50.860;5.714;2022-12-07T02:10:14;4.60;99.90
24456;DHT22;12628;50.860;5.714;2022-12-07T02:12:42;4.60;99.90
24456;DHT22;12628;50.860;5.714;2022-12-07T02:15:11;4.60;99.90
24456;DHT22;12628;50.860;5.714;2022-12-07T02:17:44;4.60;99.90
24456;DHT22;12628;50.860;5.714;2022-12-07T02:20:26;4.60;99.90
24456;DHT22;12628;50.860;5.714;2022-12-07T02:23:12;4.60;99.90
24456;DHT22;12628;50.860;5.714;2022-12-07T02:25:59;4.60;99.90
24456;DHT22;12628;50.860;5.714;2022-12-07T02:28:33;4.60;99.90
24456;DHT22;12628;50.860;5.714;2022-12-07T02:31:08;4.60;99.90
24456;DHT22;12628;50.860;5.714;2022-12-07T02:33:41;4.60;99.90
24456;DHT22;12628;50.860;5.714;2022-12-07T02:36:13;4.60;99.90
24456;DHT22;12628;50.860;5.714;2022-12-07T02:38:47;4.60;99.90
24456;DHT22;12628;50.860;5.714;2022-12-07T02:41:22;4.60;99.90
24456;DHT22;12628;50.860;5.714;2022-12-07T02:43:54;4.60;99.90
24456;DHT22;12628;50.860;5.714;2022-12-07T02:46:27;4.60;99.90
24456;DHT22;12628;50.860;5.714;2022-12-07T02:48:55;4.50;99.90
24456;DHT22;12628;50.860;5.714;2022-12-07T02:51:25;4.60;99.90
24456;DHT22;12628;50.860;5.714;2022-12-07T02:53:52;4.60;99.90
24456;DHT22;12628;50.860;5.714;2022-12-07T02:56:26;4.60;99.90
24456;DHT22;12628;50.860;5.714;2022-12-07T02:59:02;4.60;99.90
24456;DHT22;12628;50.860;5.714;2022-12-07T03:01:40;4.60;99.90
24456;DHT22;12628;50.860;5.714;2022-12-07T03:04:18;4.60;99.90
24456;DHT22;12628;50.860;5.714;2022-12-07T03:06:51;4.50;99.90
24456;DHT22;12628;50.860;5.714;2022-12-07T03:09:24;4.60;99.90
24456;DHT22;12628;50.860;5.714;2022-12-07T03:12:01;4.50;99.90
24456;DHT22;12628;50.860;5.714;2022-12-07T03:14:36;4.50;99.90
24456;DHT22;12628;50.860;5.714;2022-12-07T03:17:10;4.50;99.90
24456;DHT22;12628;50.860;5.714;2022-12-07T03:19:40;4.50;99.90
24456;DHT22;12628;50.860;5.714;2022-12-07T03:22:10;4.50;99.90
24456;DHT22;12628;50.860;5.714;2022-12-07T03:24:41;4.50;99.90
24456;DHT22;12628;50.860;5.714;2022-12-07T03:27:13;4.50;99.90
24456;DHT22;12628;50.860;5.714;2022-12-07T03:29:44;4.40;99.90
24456;DHT22;12628;50.860;5.714;2022-12-07T03:32:16;4.50;99.90
24456;DHT22;12628;50.860;5.714;2022-12-07T03:34:49;4.50;99.90
24456;DHT22;12628;50.860;5.714;2022-12-07T03:37:23;4.50;99.90
24456;DHT22;12628;50.860;5.714;2022-12-07T03:39:58;4.50;99.90
24456;DHT22;12628;50.860;5.714;2022-12-07T03:42:29;4.60;99.90
24456;DHT22;12628;50.860;5.714;2022-12-07T03:44:57;4.60;99.90
24456;DHT22;12628;50.860;5.714;2022-12-07T03:47:29;4.60;99.90
24456;DHT22;12628;50.860;5.714;2022-12-07T03:50:02;4.60;99.90
24456;DHT22;12628;50.860;5.714;2022-12-07T03:52:37;4.60;99.90
24456;DHT22;12628;50.860;5.714;2022-12-07T03:55:10;4.60;99.90
24456;DHT22;12628;50.860;5.714;2022-12-07T03:57:39;4.60;99.90
24456;DHT22;12628;50.860;5.714;2022-12-07T04:00:11;4.60;99.90
24456;DHT22;12628;50.860;5.714;2022-12-07T04:02:41;4.60;99.90
24456;DHT22;12628;50.860;5.714;2022-12-07T04:05:09;4.50;99.90
24456;DHT22;12628;50.860;5.714;2022-12-07T04:07:37;4.60;99.90
24456;DHT22;12628;50.860;5.714;2022-12-07T04:10:05;4.60;99.90
24456;DHT22;12628;50.860;5.714;2022-12-07T04:12:32;4.60;99.90
24456;DHT22;12628;50.860;5.714;2022-12-07T04:15:00;4.60;99.90
24456;DHT22;12628;50.860;5.714;2022-12-07T04:17:27;4.60;99.90
24456;DHT22;12628;50.860;5.714;2022-12-07T04:19:55;4.60;99.90
24456;DHT22;12628;50.860;5.714;2022-12-07T04:22:23;4.60;99.90
24456;DHT22;12628;50.860;5.714;2022-12-07T04:24:50;4.60;99.90
24456;DHT22;12628;50.860;5.714;2022-12-07T04:27:17;4.50;99.90
24456;DHT22;12628;50.860;5.714;2022-12-07T04:29:44;4.50;99.90
24456;DHT22;12628;50.860;5.714;2022-12-07T04:32:12;4.50;99.90
24456;DHT22;12628;50.860;5.714;2022-12-07T04:34:39;4.40;99.90
24456;DHT22;12628;50.860;5.714;2022-12-07T04:37:08;4.40;99.90
24456;DHT22;12628;50.860;5.714;2022-12-07T04:39:35;4.40;99.90
24456;DHT22;12628;50.860;5.714;2022-12-07T04:42:02;4.30;99.90
24456;DHT22;12628;50.860;5.714;2022-12-07T04:44:30;4.30;99.90
24456;DHT22;12628;50.860;5.714;2022-12-07T04:46:58;4.30;99.90
24456;DHT22;12628;50.860;5.714;2022-12-07T04:49:25;4.30;99.90
24456;DHT22;12628;50.860;5.714;2022-12-07T04:51:53;4.30;99.90
24456;DHT22;12628;50.860;5.714;2022-12-07T04:54:22;4.30;99.90
24456;DHT22;12628;50.860;5.714;2022-12-07T04:56:49;4.40;99.90
24456;DHT22;12628;50.860;5.714;2022-12-07T04:59:17;4.40;99.90
24456;DHT22;12628;50.860;5.714;2022-12-07T05:01:44;4.40;99.90
24456;DHT22;12628;50.860;5.714;2022-12-07T05:04:11;4.30;99.90
24456;DHT22;12628;50.860;5.714;2022-12-07T05:06:39;4.30;99.90
24456;DHT22;12628;50.860;5.714;2022-12-07T05:09:06;4.30;99.90
24456;DHT22;12628;50.860;5.714;2022-12-07T05:11:35;4.30;99.90
24456;DHT22;12628;50.860;5.714;2022-12-07T05:14:08;4.30;99.90
24456;DHT22;12628;50.860;5.714;2022-12-07T05:16:36;4.30;99.90
24456;DHT22;12628;50.860;5.714;2022-12-07T05:19:03;4.30;99.90
24456;DHT22;12628;50.860;5.714;2022-12-07T05:21:30;4.20;99.90
24456;DHT22;12628;50.860;5.714;2022-12-07T05:23:57;4.20;99.90
24456;DHT22;12628;50.860;5.714;2022-12-07T05:26:24;4.20;99.90
24456;DHT22;12628;50.860;5.714;2022-12-07T05:28:54;4.20;99.90
24456;DHT22;12628;50.860;5.714;2022-12-07T05:31:22;4.20;99.90
24456;DHT22;12628;50.860;5.714;2022-12-07T05:33:50;4.20;99.90
24456;DHT22;12628;50.860;5.714;2022-12-07T05:36:17;4.20;99.90
24456;DHT22;12628;50.860;5.714;2022-12-07T05:38:44;4.20;99.90
24456;DHT22;12628;50.860;5.714;2022-12-07T05:41:14;4.20;99.90
24456;DHT22;12628;50.860;5.714;2022-12-07T05:43:57;4.20;99.90
24456;DHT22;12628;50.860;5.714;2022-12-07T05:46:24;4.20;99.90
24456;DHT22;12628;50.860;5.714;2022-12-07T05:48:52;4.20;99.90
24456;DHT22;12628;50.860;5.714;2022-12-07T05:51:19;4.20;99.90
24456;DHT22;12628;50.860;5.714;2022-12-07T05:53:46;4.20;99.90
24456;DHT22;12628;50.860;5.714;2022-12-07T05:56:13;4.20;99.90
24456;DHT22;12628;50.860;5.714;2022-12-07T05:58:40;4.10;99.90
24456;DHT22;12628;50.860;5.714;2022-12-07T06:01:26;4.20;99.90
24456;DHT22;12628;50.860;5.714;2022-12-07T06:03:54;4.20;99.90
24456;DHT22;12628;50.860;5.714;2022-12-07T06:06:21;4.20;99.90
24456;DHT22;12628;50.860;5.714;2022-12-07T06:08:48;4.20;99.90
24456;DHT22;12628;50.860;5.714;2022-12-07T06:11:16;4.20;99.90
24456;DHT22;12628;50.860;5.714;2022-12-07T06:14:00;4.20;99.90
24456;DHT22;12628;50.860;5.714;2022-12-07T06:16:29;4.20;99.90
24456;DHT22;12628;50.860;5.714;2022-12-07T06:18:56;4.20;99.90
24456;DHT22;12628;50.860;5.714;2022-12-07T06:21:24;4.20;99.90
24456;DHT22;12628;50.860;5.714;2022-12-07T06:23:52;4.20;99.90
24456;DHT22;12628;50.860;5.714;2022-12-07T06:26:20;4.20;99.90
24456;DHT22;12628;50.860;5.714;2022-12-07T06:28:47;4.10;99.90
24456;DHT22;12628;50.860;5.714;2022-12-07T06:31:14;4.10;99.90
24456;DHT22;12628;50.860;5.714;2022-12-07T06:33:43;4.00;99.90
24456;DHT22;12628;50.860;5.714;2022-12-07T06:36:11;4.00;99.90
24456;DHT22;12628;50.860;5.714;2022-12-07T06:38:38;3.90;99.90
24456;DHT22;12628;50.860;5.714;2022-12-07T06:41:06;3.90;99.90
24456;DHT22;12628;50.860;5.714;2022-12-07T06:43:33;3.90;99.90
24456;DHT22;12628;50.860;5.714;2022-12-07T06:46:00;4.00;99.90
24456;DHT22;12628;50.860;5.714;2022-12-07T06:48:28;4.00;99.90
24456;DHT22;12628;50.860;5.714;2022-12-07T06:50:56;4.00;99.90
24456;DHT22;12628;50.860;5.714;2022-12-07T06:53:24;4.00;99.90
24456;DHT22;12628;50.860;5.714;2022-12-07T06:55:51;3.90;99.90
24456;DHT22;12628;50.860;5.714;2022-12-07T06:58:18;4.00;99.90
24456;DHT22;12628;50.860;5.714;2022-12-07T07:00:47;4.00;99.90
24456;DHT22;12628;50.860;5.714;2022-12-07T07:03:14;3.90;99.90
24456;DHT22;12628;50.860;5.714;2022-12-07T07:05:41;4.00;99.90
24456;DHT22;12628;50.860;5.714;2022-12-07T07:08:10;3.90;99.90
24456;DHT22;12628;50.860;5.714;2022-12-07T07:10:38;3.90;99.90
24456;DHT22;12628;50.860;5.714;2022-12-07T07:13:06;3.90;99.90
24456;DHT22;12628;50.860;5.714;2022-12-07T07:15:34;3.90;99.90
24456;DHT22;12628;50.860;5.714;2022-12-07T07:18:01;3.90;99.90
24456;DHT22;12628;50.860;5.714;2022-12-07T07:20:29;3.80;99.90
24456;DHT22;12628;50.860;5.714;2022-12-07T07:22:56;3.90;99.90
24456;DHT22;12628;50.860;5.714;2022-12-07T07:25:25;3.90;99.90
24456;DHT22;12628;50.860;5.714;2022-12-07T07:27:52;3.90;99.90
24456;DHT22;12628;50.860;5.714;2022-12-07T07:30:20;4.00;99.90
24456;DHT22;12628;50.860;5.714;2022-12-07T07:32:48;4.00;99.90
24456;DHT22;12628;50.860;5.714;2022-12-07T07:35:16;4.00;99.90
24456;DHT22;12628;50.860;5.714;2022-12-07T07:37:43;4.00;99.90
24456;DHT22;12628;50.860;5.714;2022-12-07T07:40:11;4.00;99.90
24456;DHT22;12628;50.860;5.714;2022-12-07T07:42:40;4.00;99.90
24456;DHT22;12628;50.860;5.714;2022-12-07T07:45:08;4.00;99.90
24456;DHT22;12628;50.860;5.714;2022-12-07T07:47:35;4.00;99.90
24456;DHT22;12628;50.860;5.714;2022-12-07T07:50:03;4.00;99.90
24456;DHT22;12628;50.860;5.714;2022-12-07T07:52:31;4.10;99.90
24456;DHT22;12628;50.860;5.714;2022-12-07T07:54:58;4.10;99.90
24456;DHT22;12628;50.860;5.714;2022-12-07T07:57:26;4.10;99.90
24456;DHT22;12628;50.860;5.714;2022-12-07T07:59:54;4.10;99.90
24456;DHT22;12628;50.860;5.714;2022-12-07T08:02:22;4.10;99.90
24456;DHT22;12628;50.860;5.714;2022-12-07T08:04:49;4.10;99.90
24456;DHT22;12628;50.860;5.714;2022-12-07T08:07:17;4.10;99.90
24456;DHT22;12628;50.860;5.714;2022-12-07T08:09:44;4.10;99.90
24456;DHT22;12628;50.860;5.714;2022-12-07T08:12:11;4.10;99.90
24456;DHT22;12628;50.860;5.714;2022-12-07T08:14:39;4.10;99.90
24456;DHT22;12628;50.860;5.714;2022-12-07T08:17:08;4.10;99.90
24456;DHT22;12628;50.860;5.714;2022-12-07T08:19:35;4.10;99.90
24456;DHT22;12628;50.860;5.714;2022-12-07T08:22:03;4.10;99.90
24456;DHT22;12628;50.860;5.714;2022-12-07T08:24:32;4.10;99.90
24456;DHT22;12628;50.860;5.714;2022-12-07T08:27:00;4.10;99.90
24456;DHT22;12628;50.860;5.714;2022-12-07T08:29:27;4.20;99.90
24456;DHT22;12628;50.860;5.714;2022-12-07T08:31:55;4.30;99.90
24456;DHT22;12628;50.860;5.714;2022-12-07T08:34:23;4.40;99.90
24456;DHT22;12628;50.860;5.714;2022-12-07T08:36:50;4.40;99.90
24456;DHT22;12628;50.860;5.714;2022-12-07T08:39:18;4.50;99.90
24456;DHT22;12628;50.860;5.714;2022-12-07T08:41:45;4.50;99.90
24456;DHT22;12628;50.860;5.714;2022-12-07T08:44:12;4.50;99.90
24456;DHT22;12628;50.860;5.714;2022-12-07T08:46:44;4.60;99.90
24456;DHT22;12628;50.860;5.714;2022-12-07T08:49:16;4.50;99.90
24456;DHT22;12628;50.860;5.714;2022-12-07T08:51:47;4.60;99.90
24456;DHT22;12628;50.860;5.714;2022-12-07T08:54:16;4.60;99.90
24456;DHT22;12628;50.860;5.714;2022-12-07T08:56:45;4.60;99.90
24456;DHT22;12628;50.860;5.714;2022-12-07T08:59:14;4.70;99.90
24456;DHT22;12628;50.860;5.714;2022-12-07T09:01:43;4.70;99.90
24456;DHT22;12628;50.860;5.714;2022-12-07T09:04:10;4.70;99.90
24456;DHT22;12628;50.860;5.714;2022-12-07T09:06:38;4.80;99.90
24456;DHT22;12628;50.860;5.714;2022-12-07T09:09:08;4.80;99.90
24456;DHT22;12628;50.860;5.714;2022-12-07T09:11:35;4.80;99.90
24456;DHT22;12628;50.860;5.714;2022-12-07T09:14:02;4.60;99.90
24456;DHT22;12628;50.860;5.714;2022-12-07T09:16:30;4.60;99.90
24456;DHT22;12628;50.860;5.714;2022-12-07T09:18:57;4.70;99.90
24456;DHT22;12628;50.860;5.714;2022-12-07T09:21:24;4.80;99.90
24456;DHT22;12628;50.860;5.714;2022-12-07T09:23:51;4.80;99.90
24456;DHT22;12628;50.860;5.714;2022-12-07T09:26:20;4.80;99.90
24456;DHT22;12628;50.860;5.714;2022-12-07T09:28:47;4.80;99.90
24456;DHT22;12628;50.860;5.714;2022-12-07T09:31:15;4.80;99.90
24456;DHT22;12628;50.860;5.714;2022-12-07T09:33:42;4.80;99.90
24456;DHT22;12628;50.860;5.714;2022-12-07T09:36:10;4.90;99.90
24456;DHT22;12628;50.860;5.714;2022-12-07T09:38:37;4.90;99.90
24456;DHT22;12628;50.860;5.714;2022-12-07T09:41:06;5.00;99.90
24456;DHT22;12628;50.860;5.714;2022-12-07T09:43:36;4.90;99.90
24456;DHT22;12628;50.860;5.714;2022-12-07T09:46:04;4.90;99.90
24456;DHT22;12628;50.860;5.714;2022-12-07T09:48:34;5.00;99.90
24456;DHT22;12628;50.860;5.714;2022-12-07T09:51:09;5.10;99.90
24456;DHT22;12628;50.860;5.714;2022-12-07T09:53:41;5.30;99.90
24456;DHT22;12628;50.860;5.714;2022-12-07T09:56:10;5.70;99.90
24456;DHT22;12628;50.860;5.714;2022-12-07T09:58:40;6.20;99.90
24456;DHT22;12628;50.860;5.714;2022-12-07T10:01:11;6.60;99.90
24456;DHT22;12628;50.860;5.714;2022-12-07T10:03:42;6.50;99.90
24456;DHT22;12628;50.860;5.714;2022-12-07T10:06:12;6.40;99.90
24456;DHT22;12628;50.860;5.714;2022-12-07T10:08:40;6.10;99.90
24456;DHT22;12628;50.860;5.714;2022-12-07T10:11:09;5.90;99.90
24456;DHT22;12628;50.860;5.714;2022-12-07T10:13:41;5.80;99.90
24456;DHT22;12628;50.860;5.714;2022-12-07T10:16:32;5.60;99.90
24456;DHT22;12628;50.860;5.714;2022-12-07T10:19:19;6.00;99.90
24456;DHT22;12628;50.860;5.714;2022-12-07T10:22:00;7.10;99.90
24456;DHT22;12628;50.860;5.714;2022-12-07T10:24:28;7.70;99.90
24456;DHT22;12628;50.860;5.714;2022-12-07T10:26:56;7.40;99.90
24456;DHT22;12628;50.860;5.714;2022-12-07T10:29:29;7.00;99.90
24456;DHT22;12628;50.860;5.714;2022-12-07T10:31:58;6.60;99.90
24456;DHT22;12628;50.860;5.714;2022-12-07T10:34:28;6.30;99.90
24456;DHT22;12628;50.860;5.714;2022-12-07T10:37:14;6.10;99.90
24456;DHT22;12628;50.860;5.714;2022-12-07T10:39:43;6.20;99.90
24456;DHT22;12628;50.860;5.714;2022-12-07T10:42:19;6.30;99.90
24456;DHT22;12628;50.860;5.714;2022-12-07T10:44:49;6.40;99.90
24456;DHT22;12628;50.860;5.714;2022-12-07T10:47:26;6.50;99.90
24456;DHT22;12628;50.860;5.714;2022-12-07T10:50:14;6.80;99.90
24456;DHT22;12628;50.860;5.714;2022-12-07T10:53:14;6.90;99.90
24456;DHT22;12628;50.860;5.714;2022-12-07T10:56:09;7.00;1.00
24456;DHT22;12628;50.860;5.714;2022-12-07T10:58:51;7.20;1.00
24456;DHT22;12628;50.860;5.714;2022-12-07T11:01:24;7.00;1.00
24456;DHT22;12628;50.860;5.714;2022-12-07T11:04:10;6.70;1.00
24456;DHT22;12628;50.860;5.714;2022-12-07T11:06:47;6.70;1.00
24456;DHT22;12628;50.860;5.714;2022-12-07T11:09:58;6.90;1.00
24456;DHT22;12628;50.860;5.714;2022-12-07T11:12:36;7.10;1.00
24456;DHT22;12628;50.860;5.714;2022-12-07T11:15:14;7.40;99.90
24456;DHT22;12628;50.860;5.714;2022-12-07T11:17:51;7.40;37.30
24456;DHT22;12628;50.860;5.714;2022-12-07T11:20:32;7.20;8.60
24456;DHT22;12628;50.860;5.714;2022-12-07T11:23:09;7.00;99.90
24456;DHT22;12628;50.860;5.714;2022-12-07T11:25:46;6.90;99.90
24456;DHT22;12628;50.860;5.714;2022-12-07T11:28:25;8.30;1.00
24456;DHT22;12628;50.860;5.714;2022-12-07T11:31:03;8.90;1.00
24456;DHT22;12628;50.860;5.714;2022-12-07T11:33:41;8.50;1.00
24456;DHT22;12628;50.860;5.714;2022-12-07T11:36:29;7.80;1.00
24456;DHT22;12628;50.860;5.714;2022-12-07T11:39:01;7.20;1.00
24456;DHT22;12628;50.860;5.714;2022-12-07T11:41:33;6.90;1.00
24456;DHT22;12628;50.860;5.714;2022-12-07T11:44:06;6.80;6.80
24456;DHT22;12628;50.860;5.714;2022-12-07T11:46:44;7.20;99.90
24456;DHT22;12628;50.860;5.714;2022-12-07T11:49:21;8.30;1.00
24456;DHT22;12628;50.860;5.714;2022-12-07T11:51:53;8.20;1.00
24456;DHT22;12628;50.860;5.714;2022-12-07T11:54:26;7.70;1.00
24456;DHT22;12628;50.860;5.714;2022-12-07T11:56:56;7.40;1.00
24456;DHT22;12628;50.860;5.714;2022-12-07T11:59:31;7.10;41.00
24456;DHT22;12628;50.860;5.714;2022-12-07T12:02:07;7.20;99.90
24456;DHT22;12628;50.860;5.714;2022-12-07T12:04:49;7.10;99.90
24456;DHT22;12628;50.860;5.714;2022-12-07T12:07:22;6.80;99.90
24456;DHT22;12628;50.860;5.714;2022-12-07T12:09:52;6.90;99.90
24456;DHT22;12628;50.860;5.714;2022-12-07T12:12:23;6.90;99.90
24456;DHT22;12628;50.860;5.714;2022-12-07T12:15:03;6.90;99.90
24456;DHT22;12628;50.860;5.714;2022-12-07T12:17:53;7.10;99.90
24456;DHT22;12628;50.860;5.714;2022-12-07T12:20:29;7.20;99.90
24456;DHT22;12628;50.860;5.714;2022-12-07T12:23:01;7.30;8.30
24456;DHT22;12628;50.860;5.714;2022-12-07T12:25:37;7.20;40.40
24456;DHT22;12628;50.860;5.714;2022-12-07T12:28:15;7.10;31.20
24456;DHT22;12628;50.860;5.714;2022-12-07T12:30:45;7.00;26.60
24456;DHT22;12628;50.860;5.714;2022-12-07T12:33:16;7.00;99.90
24456;DHT22;12628;50.860;5.714;2022-12-07T12:36:19;7.10;48.60
24456;DHT22;12628;50.860;5.714;2022-12-07T12:38:49;7.20;78.20
24456;DHT22;12628;50.860;5.714;2022-12-07T12:47:56;7.60;1.00
24456;DHT22;12628;50.860;5.714;2022-12-07T12:50:29;7.50;1.00
24456;DHT22;12628;50.860;5.714;2022-12-07T12:53:12;7.30;1.00
24456;DHT22;12628;50.860;5.714;2022-12-07T12:58:44;7.30;28.70
24456;DHT22;12628;50.860;5.714;2022-12-07T13:01:45;7.10;16.20
24456;DHT22;12628;50.860;5.714;2022-12-07T13:04:48;7.10;94.70
24456;DHT22;12628;50.860;5.714;2022-12-07T13:13:32;7.00;99.90
24456;DHT22;12628;50.860;5.714;2022-12-07T13:16:38;7.10;99.90
24456;DHT22;12628;50.860;5.714;2022-12-07T13:22:52;7.10;99.90
24456;DHT22;12628;50.860;5.714;2022-12-07T13:25:31;7.00;99.90
24456;DHT22;12628;50.860;5.714;2022-12-07T13:28:07;7.00;99.90
24456;DHT22;12628;50.860;5.714;2022-12-07T13:30:59;7.00;99.90
24456;DHT22;12628;50.860;5.714;2022-12-07T13:33:29;7.00;99.90
24456;DHT22;12628;50.860;5.714;2022-12-07T13:35:57;7.00;99.90
24456;DHT22;12628;50.860;5.714;2022-12-07T13:38:29;6.90;99.90
24456;DHT22;12628;50.860;5.714;2022-12-07T13:41:04;6.80;90.70
24456;DHT22;12628;50.860;5.714;2022-12-07T13:43:43;6.80;63.00
24456;DHT22;12628;50.860;5.714;2022-12-07T13:46:11;6.70;99.90
24456;DHT22;12628;50.860;5.714;2022-12-07T13:48:45;6.70;99.90
24456;DHT22;12628;50.860;5.714;2022-12-07T13:51:19;6.70;99.90
24456;DHT22;12628;50.860;5.714;2022-12-07T13:53:48;6.70;99.90
24456;DHT22;12628;50.860;5.714;2022-12-07T13:56:18;6.70;99.90
24456;DHT22;12628;50.860;5.714;2022-12-07T13:58:48;6.60;99.90
24456;DHT22;12628;50.860;5.714;2022-12-07T14:01:18;6.60;99.90
24456;DHT22;12628;50.860;5.714;2022-12-07T14:03:46;6.60;99.90
24456;DHT22;12628;50.860;5.714;2022-12-07T14:06:26;6.60;99.90
24456;DHT22;12628;50.860;5.714;2022-12-07T14:09:17;6.50;99.90
24456;DHT22;12628;50.860;5.714;2022-12-07T14:11:46;6.50;99.90
24456;DHT22;12628;50.860;5.714;2022-12-07T14:14:18;6.50;99.90
24456;DHT22;12628;50.860;5.714;2022-12-07T14:16:55;6.50;99.90
24456;DHT22;12628;50.860;5.714;2022-12-07T14:19:40;6.50;99.90
24456;DHT22;12628;50.860;5.714;2022-12-07T14:22:15;6.60;99.90
24456;DHT22;12628;50.860;5.714;2022-12-07T14:24:45;6.60;99.90
24456;DHT22;12628;50.860;5.714;2022-12-07T14:27:21;6.70;99.90
24456;DHT22;12628;50.860;5.714;2022-12-07T14:29:52;6.70;99.90
24456;DHT22;12628;50.860;5.714;2022-12-07T14:32:23;6.80;99.90
24456;DHT22;12628;50.860;5.714;2022-12-07T14:34:56;6.80;99.90
24456;DHT22;12628;50.860;5.714;2022-12-07T14:37:23;6.90;57.20
24456;DHT22;12628;50.860;5.714;2022-12-07T14:39:51;6.80;5.20
24456;DHT22;12628;50.860;5.714;2022-12-07T14:42:20;6.60;1.00
24456;DHT22;12628;50.860;5.714;2022-12-07T14:44:51;6.50;1.00
